Impacts TAF Board
For situational awareness. Not to be used for flight planning purposes.
IDs:

KLAS - Las Vegas/McCarran I, NV, US

Issued at 0206 UTC 12 Dec 2018
Updated at 0258 UTC 12 Dec 2018
Potential Impact None Slight Moderate High
Time<<13/03Z 13/04Z 13/05Z 13/06Z 13/07Z 13/08Z 13/09Z 13/10Z 13/11Z 13/12Z 13/13Z 13/14Z 13/15Z
Type PRVL PRVL PRVL
VIS >6 >6 >6
CIG -- -- --
Cover SCT SCT SCT
FltCat VFR VFR VFR
WX -- -- --
WDir 20 20 20
WSpd 11 11 11
WGst 17 17 17
Raw TAF
KLAS 120206Z 1202/1306 25006KT P6SM SKC
  FM121500 24006KT P6SM FEW150 SCT250
  FM121900 36011G17KT P6SM FEW150 SCT250
  FM130100 02011G17KT P6SM FEW150 SCT250


METAR Board
Radar Display
Forecast Discussion
For situational awareness. Not to be used for flight planning purposes.